< < Back
Terminal Aerodrome Forecast


Current Version              Previous Versions:   1  2  3  4  5  6  7  8  9  

Terminal Aerodrome Forecast

130
FTUS42 KILM 260500
TAFFLO
TAF
KFLO 260533Z 2606/2706 19005KT P6SM FEW120 SCT250
     FM260800 21006KT P6SM BKN035 BKN090
     FM261400 26012G19KT P6SM VCSH FEW007 SCT015 BKN050
     FM261700 29012G20KT P6SM VCSH SCT030 BKN050
     FM270200 31014G22KT P6SM SCT025 OVC050=

Latest METAR

425
SAUS70 KWBC 261000 RRH
MTRFLO
METAR KFLO 260953Z AUTO 00000KT 10SM BKN065 07/04 A2969 RMK AO2 SLP051
T00670044 $


USA.gov is the U.S. government's official web portal to all federal, state and local government web resources and services.